Time;durP1;ratioP1;P1;durP2;ratioP2;P2;SDS_P1;SDS_P2;PMS_P1;PMS_P2;Temp;Humidity;BMP_temperature;BMP_pressure;BME280_temperature;BME280_humidity;BME280_pressure;Samples;Min_cycle;Max_cycle;Signal;HPM_P1;HPM_P2
2021/12/18 00:00:43;;;;;;;14.47;10.90;;;;;;;4.56;87.36;99916.22;5105854;28;20199;-56
2021/12/18 00:03:11;;;;;;;14.85;11.32;;;;;;;4.52;87.75;99915.19;5109988;28;21028;-57
2021/12/18 00:05:39;;;;;;;14.33;10.77;;;;;;;4.50;87.41;99909.19;5110350;28;20192;-57
2021/12/18 00:08:07;;;;;;;17.23;11.03;;;;;;;4.54;88.67;99911.03;5110411;28;20179;-57
2021/12/18 00:10:34;;;;;;;24.73;15.93;;;;;;;4.55;87.69;99915.34;5110469;28;20648;-57
2021/12/18 00:13:01;;;;;;;29.33;17.23;;;;;;;4.65;88.35;99922.59;5110102;28;20277;-57
2021/12/18 00:15:29;;;;;;;18.17;12.30;;;;;;;4.56;87.48;99918.78;5110632;28;20228;-58
2021/12/18 00:17:56;;;;;;;18.30;13.27;;;;;;;4.41;88.41;99913.81;5110317;28;20191;-57
2021/12/18 00:20:25;;;;;;;22.57;14.77;;;;;;;4.42;88.88;99917.25;5109989;28;20277;-57
2021/12/18 00:22:55;;;;;;;21.27;14.73;;;;;;;4.48;89.26;99918.38;5110081;28;20204;-57
2021/12/18 00:25:22;;;;;;;22.73;14.00;;;;;;;4.53;89.20;99918.63;5090572;28;20242;-56
2021/12/18 00:27:49;;;;;;;25.40;16.00;;;;;;;4.54;88.71;99917.81;5078209;28;20272;-56
2021/12/18 00:30:17;;;;;;;23.30;14.70;;;;;;;4.41;89.75;99908.75;5081865;28;20207;-58
2021/12/18 00:32:44;;;;;;;21.63;14.47;;;;;;;4.42;88.98;99912.16;5093584;28;20226;-57
2021/12/18 00:35:11;;;;;;;23.30;15.13;;;;;;;4.42;88.96;99910.47;5085221;28;20206;-58
2021/12/18 00:37:38;;;;;;;23.17;15.13;;;;;;;4.36;89.48;99902.56;5082632;28;20192;-57
2021/12/18 00:40:16;;;;;;;23.23;15.50;;;;;;;4.39;89.78;99907.81;5082236;28;20189;-57
2021/12/18 00:42:47;;;;;;;22.67;15.23;;;;;;;4.43;89.43;99916.44;5081003;28;20179;-57
2021/12/18 00:45:16;;;;;;;24.67;16.47;;;;;;;4.45;89.32;99917.41;5073281;28;20223;-57
2021/12/18 00:47:45;;;;;;;20.27;14.57;;;;;;;4.45;89.81;99918.22;5073165;28;20294;-57
2021/12/18 00:50:15;;;;;;;21.07;15.10;;;;;;;4.52;89.51;99919.41;5073358;28;20223;-57
2021/12/18 00:52:42;;;;;;;23.60;15.27;;;;;;;4.61;90.04;99925.81;5073337;28;20574;-57
2021/12/18 00:55:11;;;;;;;21.57;14.57;;;;;;;4.63;89.41;99924.19;5073018;28;20196;-57
2021/12/18 00:57:38;;;;;;;19.27;12.70;;;;;;;4.68;89.61;99919.31;5073089;28;20684;-56
2021/12/18 01:00:08;;;;;;;15.97;12.03;;;;;;;4.46;89.17;99874.19;5072953;28;21001;-57
2021/12/18 01:02:36;;;;;;;18.17;12.70;;;;;;;4.73;89.02;99918.72;5073352;28;20303;-56
2021/12/18 01:05:04;;;;;;;15.87;11.73;;;;;;;4.82;88.03;99913.19;5072847;28;20655;-56
2021/12/18 01:07:32;;;;;;;18.50;12.47;;;;;;;4.74;88.47;99904.34;5072731;28;20291;-57
2021/12/18 01:10:06;;;;;;;18.53;12.40;;;;;;;4.69;88.46;99904.13;5072689;28;20220;-57
2021/12/18 01:12:39;;;;;;;15.03;12.07;;;;;;;4.66;88.68;99908.19;5072796;28;20693;-57
2021/12/18 01:15:17;;;;;;;17.40;12.07;;;;;;;4.67;88.95;99894.66;5072664;28;20193;-57
2021/12/18 01:23:14;;;;;;;16.53;12.00;;;;;;;4.74;89.26;99909.41;5072924;28;20904;-57
2021/12/18 01:25:41;;;;;;;21.00;13.47;;;;;;;4.73;88.94;99903.44;5072890;28;20204;-57
2021/12/18 01:28:09;;;;;;;26.57;17.53;;;;;;;4.60;89.17;99902.81;5073021;28;20558;-57
2021/12/18 01:30:37;;;;;;;19.53;12.33;;;;;;;4.58;89.26;99899.34;5072204;28;20594;-57
2021/12/18 01:33:04;;;;;;;14.93;12.13;;;;;;;4.46;89.10;99898.75;5072509;28;20259;-57
2021/12/18 01:35:32;;;;;;;14.73;10.67;;;;;;;4.42;89.42;99895.19;5076480;28;20268;-57
2021/12/18 01:38:00;;;;;;;16.27;11.13;;;;;;;4.42;89.94;99896.91;5081748;28;20237;-62
2021/12/18 01:40:28;;;;;;;13.63;11.17;;;;;;;4.44;89.71;99905.47;5082202;28;20213;-60
2021/12/18 01:46:12;;;;;;;13.73;10.43;;;;;;;4.25;89.62;99895.22;5095180;28;20182;-56
2021/12/18 01:51:33;;;;;;;15.57;9.80;;;;;;;4.26;89.98;99894.44;5081337;28;20233;-56
2021/12/18 01:54:00;;;;;;;13.33;10.17;;;;;;;4.25;90.05;99891.00;5080551;28;20652;-61
2021/12/18 01:56:28;;;;;;;12.83;9.03;;;;;;;4.25;90.50;99888.47;5078909;28;20275;-60
2021/12/18 01:58:56;;;;;;;10.73;8.60;;;;;;;4.26;90.08;99889.34;5080648;28;20192;-60
2021/12/18 02:01:24;;;;;;;12.83;9.93;;;;;;;4.23;89.95;99889.19;5108207;28;20198;-62
2021/12/18 02:03:51;;;;;;;12.67;9.97;;;;;;;4.26;90.55;99889.34;5111245;28;20201;-60
2021/12/18 02:06:20;;;;;;;14.10;10.50;;;;;;;4.29;89.41;99892.00;5092126;28;20205;-60
2021/12/18 02:08:47;;;;;;;14.55;10.55;;;;;;;3.96;90.25;99837.91;5091539;28;20483;-60
2021/12/18 02:11:26;;;;;;;15.77;10.30;;;;;;;4.24;90.21;99885.84;5091776;28;20278;-60
2021/12/18 02:19:49;;;;;;;14.50;11.50;;;;;;;4.23;89.22;99882.41;5112170;28;20315;-62
2021/12/18 02:22:19;;;;;;;16.87;11.20;;;;;;;4.23;89.51;99876.47;5111988;28;20186;-60
2021/12/18 02:24:46;;;;;;;15.90;11.90;;;;;;;4.24;90.30;99874.00;5111957;28;20657;-62
2021/12/18 02:27:13;;;;;;;17.43;12.57;;;;;;;4.24;89.59;99883.28;5112046;28;20201;-61
2021/12/18 02:29:41;;;;;;;16.57;12.50;;;;;;;4.23;89.94;99886.66;5108313;28;20222;-61
2021/12/18 02:32:10;;;;;;;21.73;14.07;;;;;;;4.21;89.94;99872.97;5091198;28;20718;-62
2021/12/18 02:34:39;;;;;;;17.95;13.63;;;;;;;4.18;89.29;99868.63;5091524;28;20563;-61
2021/12/18 02:37:09;;;;;;;17.67;13.27;;;;;;;4.17;90.70;99875.38;5091274;28;20187;-60
2021/12/18 02:40:44;;;;;;;19.53;13.33;;;;;;;4.20;89.93;99873.78;5091249;28;20543;-60
2021/12/18 02:42:33;;;;;;;22.98;17.25;;;;;;;4.22;90.36;99879.81;5090332;28;20953;-62
2021/12/18 02:45:01;;;;;;;18.63;14.53;;;;;;;4.26;90.17;99874.94;5091082;28;20196;-60
2021/12/18 02:47:28;;;;;;;20.10;16.83;;;;;;;4.25;89.80;99877.41;5091145;28;20195;-61
2021/12/18 02:49:55;;;;;;;23.07;15.80;;;;;;;4.24;90.19;99878.22;5091090;28;20694;-60
2021/12/18 02:52:29;;;;;;;20.53;15.37;;;;;;;4.17;90.11;99882.16;5090343;28;20197;-62
2021/12/18 02:54:58;;;;;;;19.00;14.93;;;;;;;4.16;90.27;99883.81;5091294;28;20555;-62
2021/12/18 02:57:25;;;;;;;20.03;14.10;;;;;;;4.14;90.74;99885.44;5091156;28;20286;-60
2021/12/18 02:59:57;;;;;;;20.63;14.63;;;;;;;4.16;90.45;99880.41;5091230;28;20214;-61
2021/12/18 03:02:25;;;;;;;20.67;15.30;;;;;;;4.09;90.49;99875.84;5090886;28;20190;-61
2021/12/18 03:04:56;;;;;;;20.20;14.37;;;;;;;4.15;90.35;99881.19;5090952;28;20407;-60
2021/12/18 03:07:26;;;;;;;18.10;12.60;;;;;;;4.21;90.08;99881.47;5090685;28;20195;-60
2021/12/18 03:23:46;;;;;;;13.07;9.43;;;;;;;4.47;88.31;99895.44;5090711;28;20234;-59
2021/12/18 03:26:14;;;;;;;12.98;9.77;;;;;;;4.56;87.42;99889.06;5090157;28;20447;-60
2021/12/18 03:28:43;;;;;;;14.20;9.67;;;;;;;4.63;85.86;99900.41;5090329;28;20660;-62
2021/12/18 03:31:10;;;;;;;12.50;9.77;;;;;;;4.66;85.96;99900.56;5090327;28;20228;-62
2021/12/18 03:33:38;;;;;;;15.33;9.77;;;;;;;4.71;86.49;99906.72;5090606;28;20576;-61
2021/12/18 03:36:07;;;;;;;14.47;9.73;;;;;;;4.69;85.38;99903.25;5090434;28;20644;-62
2021/12/18 03:38:34;;;;;;;12.80;9.40;;;;;;;4.66;86.00;99898.91;5090487;28;20198;-62
2021/12/18 03:41:01;;;;;;;12.97;8.73;;;;;;;4.76;85.68;99895.09;5090451;28;20191;-61
2021/12/18 03:43:28;;;;;;;12.47;8.57;;;;;;;4.80;85.85;99896.97;5090533;28;20277;-61
2021/12/18 03:45:56;;;;;;;12.80;9.33;;;;;;;4.84;85.85;99898.84;5090408;28;20197;-61
2021/12/18 03:48:23;;;;;;;12.03;9.60;;;;;;;4.83;85.75;99901.34;5090562;28;20200;-62
2021/12/18 03:50:52;;;;;;;11.00;8.57;;;;;;;4.88;85.62;99905.84;5090295;28;20301;-61
2021/12/18 03:53:19;;;;;;;13.07;9.10;;;;;;;4.88;85.31;99905.84;5090219;28;20328;-61
2021/12/18 03:55:46;;;;;;;11.63;8.57;;;;;;;4.88;84.55;99905.84;5090235;28;20249;-61
2021/12/18 03:58:13;;;;;;;13.37;8.70;;;;;;;4.90;84.95;99919.50;5090418;28;20196;-62
2021/12/18 04:00:40;;;;;;;11.83;8.80;;;;;;;4.91;84.61;99917.81;5090365;28;20187;-62
2021/12/18 04:03:09;;;;;;;11.07;8.83;;;;;;;4.90;83.87;99918.63;5090307;28;20204;-61
2021/12/18 04:05:36;;;;;;;11.00;8.83;;;;;;;4.88;84.24;99918.56;5094346;28;20277;-61
2021/12/18 04:08:09;;;;;;;10.87;8.87;;;;;;;4.85;84.21;99913.31;5094496;28;20634;-60
2021/12/18 04:10:38;;;;;;;12.17;9.07;;;;;;;4.84;85.06;99915.78;5094366;28;20216;-61
2021/12/18 04:13:06;;;;;;;12.57;9.10;;;;;;;4.81;85.13;99920.75;5094228;28;20187;-61
2021/12/18 04:15:33;;;;;;;12.63;8.57;;;;;;;4.83;85.31;99920.03;5094078;28;20282;-61
2021/12/18 04:18:00;;;;;;;12.07;9.33;;;;;;;4.82;84.40;99920.81;5094308;28;20203;-60
2021/12/18 04:20:29;;;;;;;12.20;8.80;;;;;;;4.82;84.87;99930.13;5093994;28;20206;-60
2021/12/18 04:22:56;;;;;;;10.77;8.80;;;;;;;4.78;84.56;99921.47;5094385;28;20284;-60
2021/12/18 04:25:23;;;;;;;14.18;10.73;;;;;;;4.86;84.76;99921.84;5093185;28;20945;-61
2021/12/18 04:27:50;;;;;;;15.50;11.87;;;;;;;4.92;84.37;99924.63;5094086;28;20635;-61
2021/12/18 04:30:18;;;;;;;17.87;12.00;;;;;;;4.98;85.02;99927.47;5093918;28;20217;-62
2021/12/18 04:32:45;;;;;;;20.20;14.80;;;;;;;4.95;85.32;99938.38;5093726;28;20638;-61
2021/12/18 04:35:12;;;;;;;19.95;16.30;;;;;;;4.90;85.35;99938.97;5092893;28;20440;-61
2021/12/18 04:37:40;;;;;;;19.90;14.60;;;;;;;4.78;85.19;99940.16;5093894;28;20220;-61
2021/12/18 04:40:08;;;;;;;24.27;13.27;;;;;;;4.48;86.64;99938.72;5093646;28;20189;-61
2021/12/18 04:42:35;;;;;;;14.50;10.83;;;;;;;4.43;86.58;99942.75;5093619;28;20274;-61
2021/12/18 04:45:02;;;;;;;10.73;8.63;;;;;;;4.18;86.91;99953.41;5093771;28;20187;-61
2021/12/18 04:47:29;;;;;;;12.33;9.30;;;;;;;4.09;87.66;99952.94;5093541;28;20204;-62
2021/12/18 04:49:56;;;;;;;14.77;10.33;;;;;;;3.94;87.76;99959.84;5093773;28;20218;-61
2021/12/18 04:52:23;;;;;;;18.90;14.37;;;;;;;3.90;88.38;99957.09;5093821;28;20195;-60
2021/12/18 04:54:52;;;;;;;16.80;13.27;;;;;;;3.83;88.54;99955.91;5093246;28;20280;-60
2021/12/18 04:57:19;;;;;;;19.30;13.17;;;;;;;3.86;88.95;99958.59;5093539;28;20187;-59
2021/12/18 04:59:46;;;;;;;25.00;16.23;;;;;;;3.88;89.36;99962.06;5093607;28;20621;-59
2021/12/18 05:02:16;;;;;;;30.13;21.20;;;;;;;3.88;88.67;99969.69;5093636;28;20190;-60
2021/12/18 05:04:43;;;;;;;25.77;18.27;;;;;;;3.90;89.42;99977.41;5092936;28;20201;-60
2021/12/18 05:07:11;;;;;;;22.43;16.13;;;;;;;3.79;89.52;99976.00;5093452;28;20213;-59
2021/12/18 05:09:38;;;;;;;25.20;17.40;;;;;;;3.70;89.63;99981.50;5092982;28;20927;-59
2021/12/18 05:12:08;;;;;;;31.20;20.57;;;;;;;3.69;89.87;99989.91;5093093;28;20198;-61
2021/12/18 05:14:35;;;;;;;32.57;22.10;;;;;;;3.77;89.98;99993.69;5093072;28;20196;-60
2021/12/18 05:17:02;;;;;;;28.03;19.50;;;;;;;3.75;89.91;99995.31;5092622;28;20194;-61
2021/12/18 05:19:29;;;;;;;21.97;16.70;;;;;;;3.73;90.27;99996.91;5093230;28;20195;-60
2021/12/18 05:21:56;;;;;;;25.20;17.53;;;;;;;3.77;89.99;100003.88;5093086;28;20716;-60
2021/12/18 05:24:23;;;;;;;24.70;17.93;;;;;;;3.80;90.50;100003.16;5093191;28;20281;-60
2021/12/18 05:26:50;;;;;;;21.07;14.60;;;;;;;3.89;90.77;100022.28;5092965;28;20195;-60
2021/12/18 05:29:18;;;;;;;20.07;13.07;;;;;;;4.00;89.96;100030.47;5093337;28;20291;-61
2021/12/18 05:31:45;;;;;;;17.93;13.07;;;;;;;3.98;89.88;100011.72;5093247;28;20226;-61
2021/12/18 05:34:20;;;;;;;25.50;17.23;;;;;;;3.98;88.58;100002.41;5092410;28;20279;-62
2021/12/18 05:37:13;;;;;;;22.73;16.40;;;;;;;4.03;89.28;100036.56;5092471;28;20228;-61
2021/12/18 05:39:39;;;;;;;27.27;18.20;;;;;;;3.85;89.55;100039.81;5092508;28;20288;-61
2021/12/18 05:42:06;;;;;;;26.53;18.57;;;;;;;3.78;90.11;100045.41;5092501;28;20270;-62
2021/12/18 05:44:35;;;;;;;22.33;16.30;;;;;;;3.61;90.91;100047.06;5092314;28;20193;-62
2021/12/18 05:47:02;;;;;;;21.60;15.73;;;;;;;3.51;91.35;100047.38;5092349;28;20270;-62
2021/12/18 05:49:29;;;;;;;20.57;15.60;;;;;;;3.70;90.89;100047.56;5091991;28;20198;-61
2021/12/18 05:51:56;;;;;;;18.07;12.20;;;;;;;3.81;91.15;100056.59;5092257;28;20715;-61
2021/12/18 05:54:23;;;;;;;17.33;12.53;;;;;;;3.91;91.05;100055.41;5092563;28;20187;-62
2021/12/18 05:56:51;;;;;;;15.67;11.63;;;;;;;3.95;89.78;100037.84;5092567;28;20223;-61
2021/12/18 05:59:18;;;;;;;16.70;12.77;;;;;;;4.08;89.77;100036.78;5091774;28;20179;-60
2021/12/18 06:01:46;;;;;;;20.63;12.87;;;;;;;4.12;89.59;100039.56;5092095;28;20191;-62
2021/12/18 06:04:13;;;;;;;20.10;13.93;;;;;;;4.17;88.98;100044.91;5092280;28;20198;-62
2021/12/18 06:06:40;;;;;;;17.47;14.93;;;;;;;4.25;89.06;100045.25;5091144;28;20811;-61
2021/12/18 06:09:07;;;;;;;18.53;14.03;;;;;;;4.32;87.59;100057.47;5092311;28;20444;-62
2021/12/18 06:11:37;;;;;;;18.97;13.33;;;;;;;4.37;87.58;100043.34;5091746;28;20613;-63
2021/12/18 06:14:04;;;;;;;22.33;12.23;;;;;;;4.43;87.05;100047.03;5092070;28;20191;-61
2021/12/18 06:16:31;;;;;;;15.43;11.40;;;;;;;4.51;86.57;100037.22;5091893;28;20206;-62
2021/12/18 06:18:59;;;;;;;17.37;11.80;;;;;;;4.66;86.98;100060.91;5092129;28;20207;-62
2021/12/18 06:21:26;;;;;;;15.90;11.60;;;;;;;4.43;86.05;100011.44;5091849;28;20278;-62
2021/12/18 06:23:56;;;;;;;16.27;12.60;;;;;;;4.80;85.98;100070.06;5091543;28;20191;-60
2021/12/18 06:26:27;;;;;;;17.10;12.17;;;;;;;4.87;85.82;100073.75;5091382;28;20197;-59
2021/12/18 06:28:54;;;;;;;19.87;12.90;;;;;;;4.99;85.30;100069.25;5091249;28;20600;-59
2021/12/18 06:31:21;;;;;;;18.73;15.25;;;;;;;5.09;85.10;100074.84;5090327;28;20467;-60
2021/12/18 06:33:48;;;;;;;19.27;13.10;;;;;;;5.05;84.73;100047.53;5091660;28;20195;-61
2021/12/18 06:36:16;;;;;;;18.60;12.53;;;;;;;5.26;84.49;100076.53;5091277;28;20659;-60
2021/12/18 06:38:43;;;;;;;17.33;12.53;;;;;;;5.35;84.20;100069.31;5091377;28;20192;-60
2021/12/18 06:41:10;;;;;;;16.60;11.90;;;;;;;5.48;83.91;100082.59;5091282;28;20202;-60
2021/12/18 06:43:37;;;;;;;18.73;13.50;;;;;;;5.55;82.97;100080.38;5091098;28;20749;-61
2021/12/18 06:46:04;;;;;;;23.77;15.10;;;;;;;5.73;84.15;100096.53;5091086;28;20184;-60
2021/12/18 06:48:31;;;;;;;15.87;12.37;;;;;;;5.74;82.53;100088.03;5091108;28;20555;-61
2021/12/18 06:50:58;;;;;;;16.70;12.00;;;;;;;5.74;82.47;100098.25;5091027;28;20207;-60
2021/12/18 06:53:26;;;;;;;15.13;10.63;;;;;;;5.62;82.10;100104.47;5090827;28;20226;-60
2021/12/18 06:55:53;;;;;;;20.93;11.53;;;;;;;5.54;81.93;100103.25;5090700;28;20183;-61
2021/12/18 06:58:20;;;;;;;12.63;9.67;;;;;;;5.58;82.30;100100.91;5092633;28;20226;-62
2021/12/18 07:00:47;;;;;;;14.97;10.63;;;;;;;5.54;82.42;100106.69;5102484;28;20218;-62
2021/12/18 07:03:14;;;;;;;14.67;10.87;;;;;;;5.40;82.83;100076.28;5111063;28;20198;-62
2021/12/18 07:05:41;;;;;;;15.37;10.00;;;;;;;5.48;82.38;100090.25;5108544;28;20191;-62
2021/12/18 07:08:08;;;;;;;12.67;9.67;;;;;;;5.51;83.00;100092.94;5103157;28;20684;-61
2021/12/18 07:10:36;;;;;;;14.23;9.67;;;;;;;5.54;82.74;100100.72;5095080;28;20224;-60
2021/12/18 07:13:03;;;;;;;16.13;9.37;;;;;;;5.50;82.77;100103.91;5090684;28;20248;-62
2021/12/18 07:15:30;;;;;;;17.17;9.77;;;;;;;5.55;82.78;100100.78;5090937;28;20202;-61
2021/12/18 07:17:57;;;;;;;14.40;8.97;;;;;;;5.54;83.07;100106.69;5090721;28;20205;-61
2021/12/18 07:20:24;;;;;;;14.97;10.03;;;;;;;5.60;82.42;100101.88;5090323;28;20210;-61
2021/12/18 07:22:51;;;;;;;13.47;9.80;;;;;;;5.54;82.87;100106.69;5090386;28;20193;-61
2021/12/18 07:25:18;;;;;;;13.13;9.83;;;;;;;5.58;83.22;100110.22;5090664;28;20190;-62
2021/12/18 07:27:47;;;;;;;14.53;11.07;;;;;;;5.66;83.34;100111.47;5090575;28;20218;-61
2021/12/18 07:30:15;;;;;;;16.00;11.40;;;;;;;5.70;82.54;100119.31;5090284;28;20661;-61
2021/12/18 07:32:42;;;;;;;15.40;10.33;;;;;;;5.52;82.54;100115.91;5090073;28;20224;-61
2021/12/18 07:35:10;;;;;;;14.63;11.40;;;;;;;5.55;82.67;100117.75;5090108;28;20187;-61
2021/12/18 07:37:38;;;;;;;16.13;12.47;;;;;;;5.62;83.18;100128.31;5089883;28;20988;-60
2021/12/18 07:40:06;;;;;;;17.57;12.07;;;;;;;5.69;83.17;100142.19;5089774;28;20196;-60
2021/12/18 07:42:33;;;;;;;16.67;12.37;;;;;;;5.66;82.72;100147.16;5090162;28;20279;-60
2021/12/18 07:45:02;;;;;;;13.43;10.20;;;;;;;5.64;82.98;100144.53;5090135;28;20275;-61
2021/12/18 07:47:29;;;;;;;15.40;10.40;;;;;;;5.66;81.75;100144.63;5090128;28;20195;-61
2021/12/18 07:49:56;;;;;;;13.93;11.10;;;;;;;5.68;81.87;100146.44;5090091;28;20196;-62
2021/12/18 07:52:24;;;;;;;20.47;11.67;;;;;;;5.71;82.24;100155.91;5089939;28;20900;-62
2021/12/18 07:54:51;;;;;;;16.47;11.17;;;;;;;5.76;82.37;100160.41;5089990;28;20198;-63
2021/12/18 07:57:18;;;;;;;13.37;10.70;;;;;;;5.72;82.42;100168.69;5090114;28;20266;-61
2021/12/18 07:59:45;;;;;;;17.87;11.43;;;;;;;5.72;82.50;100172.91;5090129;28;20303;-62
2021/12/18 08:02:13;;;;;;;15.07;10.97;;;;;;;5.81;82.44;100173.34;5090697;28;20267;-61
2021/12/18 08:04:40;;;;;;;16.23;12.85;;;;;;;5.77;82.40;100167.22;5089171;28;20446;-61
2021/12/18 08:07:07;;;;;;;15.20;11.03;;;;;;;5.72;82.10;100168.69;5089798;28;20241;-61
2021/12/18 08:09:34;;;;;;;13.53;10.53;;;;;;;5.82;81.48;100186.16;5089729;28;20646;-62
2021/12/18 08:12:01;;;;;;;15.03;10.57;;;;;;;5.87;81.01;100186.41;5090025;28;20250;-61
2021/12/18 08:14:28;;;;;;;15.52;12.70;;;;;;;5.97;81.23;100187.69;5089077;28;21171;-62
2021/12/18 08:16:55;;;;;;;14.83;10.63;;;;;;;6.08;80.55;100186.50;5089940;28;20303;-61
2021/12/18 08:19:23;;;;;;;17.10;11.40;;;;;;;6.12;80.52;100190.94;5090279;28;20301;-61
2021/12/18 08:21:51;;;;;;;17.50;12.00;;;;;;;6.12;81.27;100191.81;5090008;28;20176;-62
2021/12/18 08:24:18;;;;;;;15.60;9.60;;;;;;;6.10;80.83;100197.66;5090015;28;20196;-60
2021/12/18 08:26:44;;;;;;;18.57;12.03;;;;;;;6.10;80.10;100195.13;5090029;28;20227;-62
2021/12/18 08:29:11;;;;;;;19.27;13.10;;;;;;;6.05;80.75;100200.00;5089703;28;20482;-61
2021/12/18 08:31:38;;;;;;;18.73;11.73;;;;;;;6.07;80.71;100198.38;5089787;28;20231;-60
2021/12/18 08:34:05;;;;;;;15.53;11.60;;;;;;;6.11;80.15;100196.84;5089768;28;20279;-59
2021/12/18 08:36:34;;;;;;;15.73;11.23;;;;;;;6.14;80.21;100199.53;5090309;28;20188;-62
2021/12/18 08:39:01;;;;;;;19.33;12.57;;;;;;;6.15;80.00;100197.06;5089989;28;20205;-60
2021/12/18 08:41:28;;;;;;;17.93;11.70;;;;;;;6.16;79.75;100187.72;5090232;28;20225;-60
2021/12/18 08:43:56;;;;;;;17.00;11.93;;;;;;;6.13;80.19;100191.00;5090187;28;20193;-60
2021/12/18 08:46:22;;;;;;;16.03;11.63;;;;;;;6.22;80.27;100201.63;5095436;28;20195;-60
2021/12/18 08:48:50;;;;;;;17.83;11.30;;;;;;;6.42;80.23;100205.94;5088560;28;20709;-61
2021/12/18 08:51:17;;;;;;;14.67;10.53;;;;;;;6.67;78.84;100207.00;5076992;28;20287;-60
2021/12/18 08:53:45;;;;;;;13.17;10.80;;;;;;;6.87;78.53;100204.47;5075341;28;20273;-61
2021/12/18 08:56:12;;;;;;;22.93;13.47;;;;;;;7.02;77.67;100209.34;5080800;28;20706;-60
2021/12/18 08:58:39;;;;;;;18.77;12.27;;;;;;;7.09;76.95;100208.78;5092209;28;20190;-61
2021/12/18 09:01:06;;;;;;;14.90;11.33;;;;;;;7.14;77.18;100210.72;5091376;28;20274;-61
2021/12/18 09:03:33;;;;;;;15.93;9.37;;;;;;;7.13;76.18;100215.78;5092579;28;20187;-62
2021/12/18 09:05:59;;;;;;;12.37;8.53;;;;;;;7.21;76.37;100222.06;5092535;28;20196;-62
2021/12/18 09:08:26;;;;;;;16.80;11.67;;;;;;;7.21;75.22;100216.09;5092374;28;20191;-62
2021/12/18 09:10:55;;;;;;;15.07;10.47;;;;;;;7.27;74.66;100206.13;5092665;28;20198;-62
2021/12/18 09:13:22;;;;;;;16.27;12.07;;;;;;;7.22;73.51;100207.63;5092270;28;20284;-62
2021/12/18 09:15:49;;;;;;;15.33;12.57;;;;;;;7.28;74.75;100198.50;5092335;28;20189;-62
2021/12/18 09:18:16;;;;;;;17.80;13.10;;;;;;;7.46;75.11;100188.16;5092528;28;20194;-61
2021/12/18 09:20:44;;;;;;;16.40;12.83;;;;;;;7.56;74.45;100196.25;5091831;28;20198;-61
2021/12/18 09:23:13;;;;;;;15.87;10.50;;;;;;;7.71;74.11;100196.84;5091888;28;20630;-60
2021/12/18 09:25:40;;;;;;;14.20;10.77;;;;;;;7.79;71.70;100191.13;5083832;28;20625;-60
2021/12/18 09:28:08;;;;;;;16.57;11.53;;;;;;;7.81;72.17;100192.94;5092582;28;20200;-59
2021/12/18 09:30:36;;;;;;;13.80;10.80;;;;;;;7.87;72.32;100197.41;5092216;28;20620;-59
2021/12/18 09:33:03;;;;;;;17.60;12.53;;;;;;;7.93;72.89;100193.41;5092833;28;20304;-60
2021/12/18 09:35:30;;;;;;;15.03;11.17;;;;;;;7.90;72.57;100184.75;5092379;28;20699;-59
2021/12/18 09:37:57;;;;;;;15.00;11.37;;;;;;;7.87;71.86;100188.06;5092521;28;20190;-59
2021/12/18 09:40:24;;;;;;;11.80;9.87;;;;;;;7.76;72.33;100188.47;5091781;28;20188;-60
2021/12/18 09:42:52;;;;;;;13.10;9.97;;;;;;;7.73;72.16;100181.53;5091780;28;20562;-60
2021/12/18 09:45:20;;;;;;;14.80;11.10;;;;;;;7.76;72.98;100193.56;5091847;28;20566;-61
2021/12/18 09:47:47;;;;;;;10.80;8.73;;;;;;;7.78;71.96;100199.63;5092053;28;20280;-61
2021/12/18 09:50:16;;;;;;;12.73;9.63;;;;;;;7.88;72.01;100186.38;5091819;28;20205;-61
2021/12/18 09:52:43;;;;;;;13.70;10.67;;;;;;;7.95;72.51;100191.78;5092667;28;20305;-61
2021/12/18 09:55:11;;;;;;;15.03;9.67;;;;;;;7.93;71.41;100193.41;5099382;28;20200;-57
2021/12/18 09:57:39;;;;;;;11.90;10.00;;;;;;;7.90;72.13;100195.84;5084300;28;20638;-57
2021/12/18 10:00:09;;;;;;;12.40;8.77;;;;;;;7.92;69.93;100196.78;5095880;28;20193;-57
2021/12/18 10:02:37;;;;;;;12.90;10.13;;;;;;;7.90;69.81;100193.31;5109894;28;20577;-56
2021/12/18 10:05:04;;;;;;;13.70;10.03;;;;;;;7.99;70.52;100182.53;5111984;28;20203;-59
2021/12/18 10:07:31;;;;;;;16.17;11.70;;;;;;;8.07;70.97;100184.56;5111695;28;20192;-57
2021/12/18 10:10:00;;;;;;;12.50;9.53;;;;;;;8.18;69.60;100182.41;5112054;28;20192;-57
2021/12/18 10:12:29;;;;;;;10.13;8.23;;;;;;;8.24;68.86;100178.34;5111350;28;20223;-57
2021/12/18 10:14:58;;;;;;;13.37;9.60;;;;;;;8.32;69.45;100188.94;5111402;28;20383;-57
2021/12/18 10:17:28;;;;;;;15.43;10.73;;;;;;;8.32;69.20;100188.94;5111490;28;20273;-57
2021/12/18 10:20:16;;;;;;;14.37;9.37;;;;;;;8.28;69.04;100187.94;5111239;28;20186;-57
2021/12/18 10:22:45;;;;;;;7.93;6.57;;;;;;;8.18;66.34;100188.41;5111510;28;20506;-57
2021/12/18 10:25:14;;;;;;;8.37;6.50;;;;;;;7.95;66.59;100184.09;5111342;28;20180;-55
2021/12/18 10:27:44;;;;;;;9.40;7.10;;;;;;;7.98;67.28;100183.34;5111250;28;20224;-57
2021/12/18 10:30:15;;;;;;;9.20;7.17;;;;;;;7.98;66.56;100185.91;5111568;28;20660;-57
2021/12/18 10:32:55;;;;;;;8.93;7.40;;;;;;;7.85;68.35;100181.16;5111339;28;20997;-59
2021/12/18 10:35:37;;;;;;;9.70;7.40;;;;;;;7.84;68.82;100187.06;5111406;28;20270;-57
2021/12/18 10:38:04;;;;;;;10.03;8.23;;;;;;;7.86;69.28;100188.00;5109963;28;20191;-57
2021/12/18 10:40:42;;;;;;;10.77;8.53;;;;;;;7.86;69.77;100186.31;5080297;28;20177;-57
2021/12/18 10:43:09;;;;;;;8.70;7.40;;;;;;;7.82;69.29;100178.47;5086459;28;20236;-56
2021/12/18 10:45:37;;;;;;;11.27;8.23;;;;;;;7.77;69.63;100180.00;5093478;28;20205;-56
2021/12/18 10:48:06;;;;;;;10.20;7.90;;;;;;;7.58;68.91;100148.56;5105160;28;20215;-57
2021/12/18 10:50:41;;;;;;;13.07;9.57;;;;;;;7.76;69.53;100185.91;5111138;28;20666;-57
2021/12/18 10:53:11;;;;;;;13.83;10.90;;;;;;;7.75;70.60;100179.06;5111117;28;20672;-56
2021/12/18 10:55:43;;;;;;;14.17;9.33;;;;;;;7.45;69.51;100179.59;5111440;28;20177;-57
2021/12/18 10:58:13;;;;;;;11.47;9.00;;;;;;;6.93;70.97;100162.97;5111114;28;20272;-57
2021/12/18 11:00:55;;;;;;;12.93;9.57;;;;;;;6.82;72.13;100179.53;5111124;28;20190;-56
2021/12/18 11:03:31;;;;;;;12.10;9.10;;;;;;;6.74;73.32;100176.69;5111012;28;20215;-56
2021/12/18 11:06:18;;;;;;;16.13;11.40;;;;;;;6.58;74.50;100184.50;5111115;28;20308;-56
2021/12/18 11:08:55;;;;;;;13.40;10.00;;;;;;;6.32;76.83;100196.13;5111067;28;20273;-56
2021/12/18 11:14:12;;;;;;;10.37;7.20;;;;;;;5.96;78.28;100194.47;5110121;28;20615;-56
2021/12/18 11:16:41;;;;;;;11.00;6.90;;;;;;;5.83;78.16;100177.72;5109696;28;20276;-57
2021/12/18 11:19:12;;;;;;;7.67;6.47;;;;;;;5.82;79.84;100185.31;5110960;28;20183;-56
2021/12/18 11:21:42;;;;;;;8.93;6.07;;;;;;;5.93;79.55;100186.69;5110435;28;20569;-57
2021/12/18 11:24:11;;;;;;;9.73;6.53;;;;;;;5.87;79.44;100176.22;5110549;28;20186;-55
2021/12/18 11:26:45;;;;;;;10.77;5.50;;;;;;;5.82;80.68;100178.50;5110589;28;20653;-56
2021/12/18 11:29:20;;;;;;;11.87;7.10;;;;;;;5.81;81.29;100175.91;5110441;28;20187;-56
2021/12/18 11:31:47;;;;;;;9.30;7.20;;;;;;;5.85;81.75;100172.72;5110454;28;20232;-62
2021/12/18 11:34:16;;;;;;;8.70;6.87;;;;;;;5.83;80.74;100187.03;5085270;28;20195;-64
2021/12/18 11:36:46;;;;;;;10.15;8.15;;;;;;;5.85;81.05;100181.22;5074370;28;20527;-63
2021/12/18 11:39:15;;;;;;;11.67;9.37;;;;;;;5.64;79.43;100133.44;5088053;28;20201;-63
2021/12/18 11:41:47;;;;;;;8.30;6.63;;;;;;;5.78;80.43;100168.09;5089478;28;20227;-64
2021/12/18 11:44:35;;;;;;;7.67;5.77;;;;;;;5.82;79.98;100181.06;5089664;28;20178;-63
2021/12/18 11:47:27;;;;;;;8.43;6.63;;;;;;;5.81;79.86;100183.53;5084276;28;20577;-63
2021/12/18 11:49:57;;;;;;;11.27;8.90;;;;;;;5.85;80.91;100175.28;5085973;28;20234;-63
2021/12/18 11:52:26;;;;;;;12.37;8.33;;;;;;;5.85;80.72;100171.03;5080233;28;20203;-63
2021/12/18 11:54:56;;;;;;;11.60;10.18;;;;;;;5.90;81.27;100163.59;5074785;28;20442;-62
2021/12/18 11:57:43;;;;;;;10.70;8.70;;;;;;;6.03;80.27;100178.66;5077317;28;20250;-63
2021/12/18 12:00:38;;;;;;;12.73;10.17;;;;;;;6.08;81.08;100179.72;5072466;28;20220;-64
2021/12/18 12:03:08;;;;;;;14.15;11.88;;;;;;;6.17;81.27;100177.59;5068713;28;20541;-64
2021/12/18 12:05:39;;;;;;;21.77;14.40;;;;;;;6.23;80.76;100180.41;5080334;28;20279;-60